Time;durP1;ratioP1;P1;durP2;ratioP2;P2;SDS_P1;SDS_P2;PMS_P1;PMS_P2;Temp;Humidity;BMP_temperature;BMP_pressure;BME280_temperature;BME280_humidity;BME280_pressure;Samples;Min_cycle;Max_cycle;Signal;HPM_P1;HPM_P2
2023/04/11 00:00:11;;;;;;;4.32;2.33;;;;;;;12.43;42.75;94796.75;5042678;28;20043;-86
2023/04/11 00:02:39;;;;;;;5.32;2.15;;;;;;;12.54;41.81;94792.25;5059232;28;20028;-86
2023/04/11 00:05:06;;;;;;;4.70;2.17;;;;;;;12.77;41.90;94778.75;5059684;28;20114;-87
2023/04/11 00:07:31;;;;;;;4.07;2.33;;;;;;;12.68;41.58;94775.91;5059840;28;20074;-87
2023/04/11 00:09:56;;;;;;;3.63;2.38;;;;;;;12.45;40.55;94780.69;5042721;28;20458;-87
2023/04/11 00:12:22;;;;;;;4.40;2.33;;;;;;;12.64;40.57;94770.38;5059349;28;20040;-87
2023/04/11 00:14:47;;;;;;;3.55;1.95;;;;;;;12.58;40.19;94769.63;5059452;28;20445;-87
2023/04/11 00:17:16;;;;;;;4.10;2.38;;;;;;;12.92;39.63;94751.59;5059456;28;20051;-86
2023/04/11 00:19:42;;;;;;;3.13;2.00;;;;;;;12.91;41.49;94750.78;5059285;28;20166;-86
2023/04/11 00:22:09;;;;;;;3.42;2.28;;;;;;;12.50;41.87;94741.28;5058981;28;20103;-86
2023/04/11 00:24:34;;;;;;;4.10;2.25;;;;;;;12.54;41.64;94739.69;5043147;28;20032;-87
2023/04/11 00:27:00;;;;;;;3.28;1.88;;;;;;;12.26;40.84;94733.22;5059198;28;20035;-87
2023/04/11 00:29:26;;;;;;;2.83;1.95;;;;;;;12.31;40.74;94733.22;5059183;28;20036;-86
2023/04/11 00:31:54;;;;;;;4.45;2.40;;;;;;;12.08;41.16;94743.25;5076722;28;20115;-86
2023/04/11 00:34:20;;;;;;;3.22;1.77;;;;;;;12.30;40.98;94727.16;5059248;28;20058;-86
2023/04/11 00:36:46;;;;;;;3.47;2.10;;;;;;;12.63;41.08;94731.25;5058850;28;20388;-87
2023/04/11 00:39:12;;;;;;;3.65;2.15;;;;;;;12.19;42.11;94728.25;5058948;28;20040;-87
2023/04/11 00:41:37;;;;;;;4.00;2.15;;;;;;;12.05;43.07;94732.50;5059048;28;20039;-86
2023/04/11 00:44:03;;;;;;;3.53;1.95;;;;;;;12.29;41.77;94730.84;5042514;28;20074;-86
2023/04/11 00:46:29;;;;;;;2.78;1.92;;;;;;;12.33;41.88;94731.09;5076386;28;20315;-87
2023/04/11 00:48:54;;;;;;;3.85;2.33;;;;;;;12.40;40.54;94717.66;5058889;28;20101;-86
2023/04/11 00:51:20;;;;;;;5.35;2.08;;;;;;;12.02;41.08;94721.47;5058639;28;20047;-86
2023/04/11 00:53:46;;;;;;;3.38;2.08;;;;;;;12.27;41.16;94726.94;5055291;28;20037;-87
2023/04/11 00:56:11;;;;;;;3.83;1.90;;;;;;;12.47;41.78;94725.25;5046028;28;20035;-87
2023/04/11 00:58:38;;;;;;;5.45;1.83;;;;;;;12.65;41.53;94727.25;5034139;28;20039;-86
2023/04/11 01:01:10;;;;;;;3.30;2.10;;;;;;;12.72;41.62;94727.75;5054786;28;20354;-87
2023/04/11 01:03:40;;;;;;;4.80;1.60;;;;;;;12.73;40.29;94729.34;5041105;28;20063;-87
2023/04/11 01:06:07;;;;;;;2.17;1.58;;;;;;;12.68;40.03;94728.56;5022631;28;20028;-86
2023/04/11 01:08:34;;;;;;;2.92;1.77;;;;;;;12.78;39.20;94715.38;5021777;28;20033;-86
2023/04/11 01:11:01;;;;;;;5.15;2.47;;;;;;;12.25;40.67;94710.63;5022673;28;20033;-87
2023/04/11 01:13:29;;;;;;;2.65;1.73;;;;;;;12.43;39.76;94717.13;5022567;28;20382;-87
2023/04/11 01:15:55;;;;;;;3.22;1.90;;;;;;;12.14;40.13;94717.75;5038688;28;20323;-87
2023/04/11 01:18:20;;;;;;;2.63;1.67;;;;;;;12.35;39.02;94704.56;5022134;28;20045;-87
2023/04/11 01:20:46;;;;;;;3.38;1.80;;;;;;;12.55;39.30;94701.03;5038802;28;20040;-87
2023/04/11 01:23:12;;;;;;;3.80;1.70;;;;;;;12.65;41.01;94703.59;5038678;28;20072;-86
2023/04/11 01:25:37;;;;;;;2.28;1.50;;;;;;;12.52;39.59;94702.38;5038421;28;20051;-87
2023/04/11 01:28:03;;;;;;;2.45;1.70;;;;;;;12.54;40.51;94700.25;5038577;28;20028;-87
2023/04/11 01:30:28;;;;;;;4.60;1.73;;;;;;;12.56;40.72;94700.75;5022321;28;20033;-87
2023/04/11 01:32:54;;;;;;;3.42;1.92;;;;;;;12.44;39.80;94698.47;5038616;28;20029;-87
2023/04/11 01:35:20;;;;;;;2.83;1.60;;;;;;;12.29;39.97;94696.69;5056343;28;20033;-87
2023/04/11 01:37:45;;;;;;;2.13;1.40;;;;;;;12.10;40.23;94685.97;5056246;28;20040;-87
2023/04/11 01:40:13;;;;;;;3.65;1.70;;;;;;;11.96;40.39;94683.13;5022203;28;20033;-88
2023/04/11 01:42:38;;;;;;;3.05;2.08;;;;;;;12.01;40.30;94682.34;5038448;28;20075;-87
2023/04/11 01:45:05;;;;;;;3.17;1.80;;;;;;;12.42;40.83;94681.41;5022318;28;20430;-87
2023/04/11 01:47:31;;;;;;;4.10;1.55;;;;;;;12.30;41.06;94681.72;5038628;28;20029;-86
2023/04/11 01:49:56;;;;;;;2.75;1.55;;;;;;;12.33;40.32;94675.13;5038282;28;20426;-87
2023/04/11 01:52:22;;;;;;;3.03;1.60;;;;;;;12.09;40.45;94673.91;5056208;28;20033;-86
2023/04/11 01:54:47;;;;;;;2.97;1.80;;;;;;;12.06;39.88;94669.19;5038103;28;20040;-87
2023/04/11 01:57:13;;;;;;;3.78;1.75;;;;;;;12.08;40.17;94667.09;5038343;28;20025;-86
2023/04/11 01:59:38;;;;;;;1.73;1.23;;;;;;;12.12;40.27;94672.59;5041428;28;20064;-86
2023/04/11 02:02:03;;;;;;;4.78;1.25;;;;;;;12.13;38.39;94671.53;5059674;28;20119;-86
2023/04/11 02:04:29;;;;;;;1.75;1.23;;;;;;;12.08;38.50;94664.47;5059439;28;20032;-86
2023/04/11 02:06:55;;;;;;;4.35;1.63;;;;;;;12.13;37.34;94661.03;5025345;28;20094;-86
2023/04/11 02:09:21;;;;;;;5.05;2.20;;;;;;;11.93;38.24;94662.66;5041352;28;20032;-87
2023/04/11 02:11:46;;;;;;;7.28;1.85;;;;;;;12.05;37.67;94657.13;5041780;28;20469;-86
2023/04/11 02:14:13;;;;;;;3.60;1.70;;;;;;;12.07;37.21;94654.25;5041268;28;20123;-87
2023/04/11 02:16:55;;;;;;;2.67;1.55;;;;;;;12.31;36.38;94649.13;5041844;28;20021;-87
2023/04/11 02:19:22;;;;;;;3.80;1.40;;;;;;;12.16;39.53;94655.25;5041581;28;20037;-87
2023/04/11 02:21:47;;;;;;;2.75;1.60;;;;;;;11.83;38.25;94647.72;5041648;28;20062;-86
2023/04/11 02:24:13;;;;;;;2.40;1.60;;;;;;;11.49;39.12;94640.47;5041315;28;20036;-87
2023/04/11 02:26:40;;;;;;;2.60;1.50;;;;;;;11.73;39.42;94635.41;5041494;28;20053;-87
2023/04/11 02:29:09;;;;;;;2.85;1.55;;;;;;;11.00;40.71;94620.84;5041425;28;20098;-86
2023/04/11 02:31:35;;;;;;;3.63;1.55;;;;;;;11.38;39.21;94613.47;5041589;28;20025;-87
2023/04/11 02:34:00;;;;;;;2.67;1.55;;;;;;;11.35;39.86;94593.03;5041315;28;20342;-87
2023/04/11 02:36:27;;;;;;;2.75;1.67;;;;;;;10.65;42.16;94575.25;5058997;28;20033;-86
2023/04/11 02:38:53;;;;;;;3.72;1.70;;;;;;;10.70;41.35;94575.25;5041417;28;20055;-87
2023/04/11 02:41:18;;;;;;;3.38;1.80;;;;;;;10.85;41.33;94579.72;5041256;28;20079;-87
2023/04/11 02:43:44;;;;;;;3.92;1.60;;;;;;;10.95;40.89;94577.06;5024879;28;20028;-87
2023/04/11 02:46:09;;;;;;;3.03;1.70;;;;;;;10.91;41.18;94588.38;5024801;28;20418;-86
2023/04/11 02:48:34;;;;;;;2.70;1.65;;;;;;;11.12;40.77;94600.41;5040671;28;20056;-86
2023/04/11 02:51:00;;;;;;;2.08;1.48;;;;;;;11.40;40.00;94594.81;5024499;28;20051;-86
2023/04/11 02:53:25;;;;;;;6.38;1.77;;;;;;;11.31;39.11;94589.34;5024396;28;20029;-86
2023/04/11 02:55:51;;;;;;;2.60;1.60;;;;;;;11.46;38.28;94583.28;5024340;28;20354;-86
2023/04/11 02:58:18;;;;;;;2.55;1.73;;;;;;;11.59;37.82;94580.09;5024285;28;20033;-86
2023/04/11 03:00:44;;;;;;;6.00;1.67;;;;;;;11.73;37.30;94587.41;5040911;28;20029;-87
2023/04/11 03:03:10;;;;;;;3.00;1.60;;;;;;;11.48;38.78;94588.25;5058827;28;20029;-86
2023/04/11 03:05:36;;;;;;;2.13;1.20;;;;;;;11.72;36.76;94591.06;5040543;28;20341;-86
2023/04/11 03:08:02;;;;;;;1.92;1.02;;;;;;;11.81;36.16;94599.94;5040296;28;20025;-87
2023/04/11 03:10:27;;;;;;;1.73;1.33;;;;;;;11.84;35.92;94601.25;5024464;28;20082;-86
2023/04/11 03:12:52;;;;;;;2.90;1.25;;;;;;;12.02;35.16;94613.78;5040274;28;20113;-86
2023/04/11 03:15:18;;;;;;;2.15;1.60;;;;;;;12.19;34.37;94604.78;5040216;28;20036;-86
2023/04/11 03:17:43;;;;;;;2.05;1.13;;;;;;;12.28;33.85;94605.78;5057939;28;20344;-86
2023/04/11 03:20:10;;;;;;;4.47;1.30;;;;;;;12.52;33.17;94602.50;5023841;28;20029;-87
2023/04/11 03:22:37;;;;;;;4.20;1.45;;;;;;;12.61;34.02;94588.75;5024355;28;20029;-87
2023/04/11 03:25:04;;;;;;;1.30;1.10;;;;;;;12.65;34.75;94574.03;5040487;28;20028;-86
2023/04/11 03:27:29;;;;;;;2.13;1.30;;;;;;;12.63;35.12;94586.66;5040223;28;20025;-87
2023/04/11 03:29:55;;;;;;;1.73;1.10;;;;;;;12.70;35.83;94581.88;5023985;28;20048;-86
2023/04/11 03:32:20;;;;;;;2.08;1.17;;;;;;;12.52;35.76;94581.47;5039974;28;20025;-87
2023/04/11 03:34:45;;;;;;;1.80;1.00;;;;;;;12.65;35.57;94576.66;5024217;28;20039;-87
2023/04/11 03:37:11;;;;;;;1.58;1.20;;;;;;;12.55;35.04;94569.63;5039771;28;20029;-86
2023/04/11 03:39:36;;;;;;;1.55;1.10;;;;;;;12.54;34.47;94570.69;5039764;28;20438;-86
2023/04/11 03:42:02;;;;;;;3.63;1.08;;;;;;;12.38;34.51;94570.03;5023467;28;20025;-86
2023/04/11 03:44:27;;;;;;;1.98;0.90;;;;;;;12.28;34.55;94571.63;5023452;28;20128;-87
2023/04/11 03:46:52;;;;;;;1.27;0.95;;;;;;;12.52;35.20;94580.69;5023643;28;20163;-87
2023/04/11 03:49:18;;;;;;;2.22;1.23;;;;;;;11.71;38.22;94581.63;5023547;28;20028;-86
2023/04/11 03:51:43;;;;;;;2.13;1.40;;;;;;;11.73;37.23;94576.91;5040783;28;20442;-86
2023/04/11 03:54:09;;;;;;;4.03;1.90;;;;;;;11.95;37.67;94567.84;5050495;28;20082;-87
2023/04/11 03:56:34;;;;;;;3.83;2.08;;;;;;;11.48;37.84;94575.94;5044153;28;20074;-86
2023/04/11 03:59:00;;;;;;;2.80;1.80;;;;;;;11.82;39.06;94559.50;5076827;28;20123;-87
2023/04/11 04:01:26;;;;;;;2.50;1.70;;;;;;;12.01;37.75;94572.03;5048061;28;20082;-87
2023/04/11 04:03:51;;;;;;;2.72;1.63;;;;;;;11.99;38.73;94577.56;5077431;28;20028;-86
2023/04/11 04:06:17;;;;;;;2.50;1.38;;;;;;;11.88;38.49;94573.41;5042857;28;20070;-86
2023/04/11 04:08:42;;;;;;;3.30;1.80;;;;;;;11.58;38.57;94567.22;5059224;28;20048;-87
2023/04/11 04:11:07;;;;;;;6.45;1.63;;;;;;;11.46;38.14;94563.06;5059432;28;20036;-87
2023/04/11 04:13:33;;;;;;;3.05;1.65;;;;;;;11.56;37.65;94557.00;5077270;28;20073;-86
2023/04/11 04:15:58;;;;;;;2.22;1.40;;;;;;;11.84;36.88;94554.00;5059061;28;20025;-86
2023/04/11 04:18:24;;;;;;;2.33;1.38;;;;;;;11.63;38.03;94563.81;5056511;28;20059;-86
2023/04/11 04:20:49;;;;;;;2.58;1.50;;;;;;;11.81;37.27;94547.44;5058433;28;20123;-86
2023/04/11 04:23:16;;;;;;;2.17;1.40;;;;;;;11.26;39.60;94548.19;5059066;28;20035;-86
2023/04/11 04:25:46;;;;;;;2.90;1.45;;;;;;;11.81;37.42;94542.19;5042733;28;20333;-86
2023/04/11 04:28:11;;;;;;;2.35;1.20;;;;;;;11.76;36.64;94533.56;5058675;28;20478;-86
2023/04/11 04:30:37;;;;;;;2.30;1.38;;;;;;;11.39;38.35;94530.28;5076613;28;20162;-86
2023/04/11 04:33:03;;;;;;;1.90;1.33;;;;;;;11.66;36.33;94529.16;5058922;28;20341;-86
2023/04/11 04:35:28;;;;;;;2.20;1.40;;;;;;;11.63;36.18;94527.06;5058788;28;20028;-86
2023/04/11 04:37:53;;;;;;;2.72;1.40;;;;;;;11.74;36.02;94526.75;5058658;28;20457;-86
2023/04/11 04:40:19;;;;;;;2.20;1.45;;;;;;;11.59;36.56;94529.44;5076650;28;20028;-86
2023/04/11 04:42:48;;;;;;;5.03;1.33;;;;;;;11.92;35.87;94531.66;5058810;28;20345;-86
2023/04/11 04:45:14;;;;;;;2.13;1.42;;;;;;;11.99;37.05;94538.16;5042766;28;20060;-86
2023/04/11 04:47:40;;;;;;;2.53;1.25;;;;;;;12.10;35.97;94541.53;5058713;28;20507;-85
2023/04/11 04:50:06;;;;;;;1.85;1.27;;;;;;;12.20;36.06;94540.72;5058547;28;20422;-86
2023/04/11 04:52:31;;;;;;;2.53;1.17;;;;;;;12.29;36.05;94552.19;5058710;28;20025;-86
2023/04/11 04:54:57;;;;;;;2.83;1.50;;;;;;;12.42;36.82;94552.63;5042290;28;20333;-86
2023/04/11 04:57:23;;;;;;;4.82;1.27;;;;;;;12.58;35.29;94548.06;5058624;28;20500;-86
2023/04/11 04:59:50;;;;;;;2.50;1.17;;;;;;;12.55;36.53;94551.22;5042891;28;20059;-86
2023/04/11 05:02:16;;;;;;;1.95;1.30;;;;;;;12.36;35.69;94551.13;5058656;28;20029;-86
2023/04/11 05:04:43;;;;;;;1.70;1.10;;;;;;;12.68;35.74;94552.44;5058457;28;20059;-86
2023/04/11 05:07:09;;;;;;;2.75;1.65;;;;;;;12.87;37.15;94545.44;5058778;28;20032;-86
2023/04/11 05:09:35;;;;;;;1.88;1.38;;;;;;;12.62;37.33;94543.81;5058423;28;20093;-87
2023/04/11 05:12:01;;;;;;;2.75;1.67;;;;;;;12.85;35.79;94544.16;5058799;28;20028;-87
2023/04/11 05:14:26;;;;;;;2.15;1.40;;;;;;;12.96;36.04;94555.38;5058785;28;20429;-86
2023/04/11 05:16:51;;;;;;;2.33;1.20;;;;;;;13.09;36.16;94562.63;5041974;28;20078;-86
2023/04/11 05:19:17;;;;;;;1.83;1.38;;;;;;;13.16;35.74;94564.91;5058376;28;20028;-86
2023/04/11 05:21:43;;;;;;;1.83;1.30;;;;;;;13.22;37.87;94561.16;5058629;28;20382;-87
2023/04/11 05:24:08;;;;;;;2.13;1.30;;;;;;;13.33;37.92;94559.19;5058598;28;20032;-86
2023/04/11 05:26:33;;;;;;;3.17;1.73;;;;;;;13.52;37.48;94564.56;5041645;28;20024;-86
2023/04/11 05:28:59;;;;;;;5.10;1.77;;;;;;;13.56;37.69;94560.31;5058236;28;20032;-86
2023/04/11 05:31:25;;;;;;;2.72;1.70;;;;;;;13.49;39.17;94554.59;5041862;28;20033;-86
2023/04/11 05:33:51;;;;;;;2.60;1.80;;;;;;;13.60;37.75;94563.16;5043902;28;20077;-86
2023/04/11 05:36:16;;;;;;;4.05;1.60;;;;;;;13.81;37.27;94563.69;5061989;28;20384;-86
2023/04/11 05:38:43;;;;;;;2.78;1.95;;;;;;;14.09;38.74;94577.03;5062040;28;20433;-87
2023/04/11 05:41:10;;;;;;;3.88;2.60;;;;;;;14.20;39.98;94566.38;5062260;28;20055;-86
2023/04/11 05:43:35;;;;;;;4.50;2.50;;;;;;;13.96;41.46;94564.56;5061994;28;20036;-86
2023/04/11 05:46:01;;;;;;;2.95;2.10;;;;;;;14.31;40.43;94567.00;5061895;28;20444;-86
2023/04/11 05:48:27;;;;;;;3.75;2.10;;;;;;;14.11;39.98;94555.69;5045379;28;20032;-86
2023/04/11 05:50:52;;;;;;;3.40;1.80;;;;;;;13.86;40.78;94565.47;5045713;28;20318;-86
2023/04/11 05:53:18;;;;;;;4.78;1.85;;;;;;;14.17;39.43;94567.72;5079483;28;20464;-86
2023/04/11 05:55:43;;;;;;;4.47;2.00;;;;;;;14.55;39.08;94565.06;5061317;28;20036;-89
2023/04/11 05:58:09;;;;;;;2.22;1.42;;;;;;;14.76;36.74;94566.63;5045531;28;20033;-89
2023/04/11 06:00:36;;;;;;;2.95;1.80;;;;;;;14.61;41.11;94564.97;5045087;28;20033;-87
2023/04/11 06:03:03;;;;;;;2.40;1.80;;;;;;;14.98;41.09;94561.50;5045647;28;20437;-87
2023/04/11 06:05:30;;;;;;;2.90;1.60;;;;;;;15.20;37.97;94554.00;5062038;28;20087;-87
2023/04/11 06:07:57;;;;;;;3.42;2.00;;;;;;;15.63;38.05;94551.09;5058200;28;20132;-87
2023/04/11 06:10:22;;;;;;;2.45;1.58;;;;;;;15.20;35.18;94554.00;5026141;28;20119;-87
2023/04/11 06:12:48;;;;;;;1.92;1.05;;;;;;;15.49;36.14;94545.03;5044979;28;20119;-87
2023/04/11 06:15:14;;;;;;;2.45;1.50;;;;;;;15.87;38.52;94536.13;5045212;28;20307;-86
2023/04/11 06:17:39;;;;;;;1.85;1.33;;;;;;;16.15;38.67;94542.13;5061357;28;20043;-86
2023/04/11 06:20:06;;;;;;;2.55;1.40;;;;;;;16.00;36.32;94542.47;5079118;28;20036;-86
2023/04/11 06:22:31;;;;;;;2.40;1.27;;;;;;;16.27;36.94;94530.28;5044765;28;20032;-86
2023/04/11 06:24:57;;;;;;;1.38;1.23;;;;;;;16.05;36.14;94521.22;5044304;28;20040;-86
2023/04/11 06:27:22;;;;;;;2.05;1.50;;;;;;;15.40;37.71;94527.25;5061153;28;20020;-85
2023/04/11 06:29:48;;;;;;;1.50;1.23;;;;;;;15.46;36.41;94524.50;5061017;28;20072;-85
2023/04/11 06:32:14;;;;;;;1.92;0.93;;;;;;;15.59;30.80;94536.91;5078876;28;20066;-85
2023/04/11 06:34:39;;;;;;;1.48;1.08;;;;;;;14.87;30.15;94531.13;5061101;28;20040;-85
2023/04/11 06:37:05;;;;;;;1.85;1.05;;;;;;;15.50;29.64;94526.25;5044443;28;20045;-85
2023/04/11 06:39:31;;;;;;;1.58;1.05;;;;;;;15.36;31.69;94523.63;5060701;28;20033;-85
2023/04/11 06:41:57;;;;;;;1.00;0.70;;;;;;;15.71;31.83;94510.03;5043908;28;20040;-85
2023/04/11 06:44:23;;;;;;;1.00;0.80;;;;;;;15.57;32.46;94498.69;5059246;28;20086;-85
2023/04/11 06:46:48;;;;;;;3.92;1.10;;;;;;;15.41;30.38;94497.13;5078697;28;20115;-85
2023/04/11 06:49:13;;;;;;;1.40;0.90;;;;;;;15.51;29.63;94498.00;5044045;28;20063;-85
2023/04/11 06:51:39;;;;;;;2.13;0.88;;;;;;;16.21;28.93;94489.94;5060562;28;20039;-85
2023/04/11 06:54:05;;;;;;;1.13;0.90;;;;;;;16.15;30.49;94481.34;5044280;28;20055;-85
2023/04/11 06:56:31;;;;;;;1.23;1.10;;;;;;;16.04;32.72;94475.53;5078449;28;20067;-85
2023/04/11 06:58:56;;;;;;;2.40;0.90;;;;;;;15.95;31.37;94479.94;5078339;28;20071;-85
2023/04/11 07:01:24;;;;;;;1.35;0.98;;;;;;;16.45;32.90;94479.06;5059662;28;20099;-85
2023/04/11 07:03:52;;;;;;;1.92;1.00;;;;;;;16.96;31.28;94478.88;5078359;28;20025;-85
2023/04/11 07:06:21;;;;;;;0.95;0.68;;;;;;;17.72;30.77;94468.38;5060399;28;20111;-85
2023/04/11 07:08:47;;;;;;;2.70;1.15;;;;;;;17.88;30.32;94466.81;5060239;28;20076;-85
2023/04/11 07:11:12;;;;;;;2.65;1.02;;;;;;;18.18;30.53;94458.28;5060270;28;20067;-85
2023/04/11 07:13:38;;;;;;;2.65;1.20;;;;;;;17.96;31.36;94457.31;5052992;28;20338;-86
2023/04/11 07:16:03;;;;;;;1.70;1.23;;;;;;;17.36;32.40;94460.38;5023925;28;20033;-85
2023/04/11 07:18:30;;;;;;;6.40;1.40;;;;;;;17.55;30.80;94459.31;5058082;28;20396;-85
2023/04/11 07:20:55;;;;;;;2.53;1.48;;;;;;;18.08;31.08;94451.44;5040448;28;20063;-85
2023/04/11 07:23:20;;;;;;;2.30;1.38;;;;;;;17.64;32.36;94446.06;5040021;28;20123;-85
2023/04/11 07:25:46;;;;;;;1.23;1.00;;;;;;;17.58;33.35;94440.16;5057813;28;20086;-85
2023/04/11 07:28:11;;;;;;;2.65;1.00;;;;;;;17.55;31.76;94432.81;5057623;28;20029;-85
2023/04/11 07:30:37;;;;;;;0.95;0.73;;;;;;;17.94;31.63;94428.50;5039939;28;20115;-85
2023/04/11 07:33:02;;;;;;;1.10;0.93;;;;;;;17.62;30.33;94443.72;5040046;28;20059;-85
2023/04/11 07:35:29;;;;;;;1.25;0.95;;;;;;;17.77;28.83;94428.47;5040228;28;20356;-85
2023/04/11 07:37:56;;;;;;;4.72;0.95;;;;;;;17.43;28.51;94443.25;5039841;28;20111;-85
2023/04/11 07:40:21;;;;;;;2.15;0.85;;;;;;;17.22;28.05;94435.88;5040115;28;20024;-85
2023/04/11 07:42:47;;;;;;;0.73;0.73;;;;;;;17.48;27.12;94438.56;5039826;28;20033;-85
2023/04/11 07:45:12;;;;;;;2.90;0.90;;;;;;;18.06;27.43;94435.03;5040071;28;20119;-85
2023/04/11 07:47:37;;;;;;;1.13;0.88;;;;;;;17.72;27.97;94442.66;5039235;28;20389;-85
2023/04/11 07:50:04;;;;;;;1.27;0.85;;;;;;;18.26;25.87;94451.41;5039596;28;20083;-85
2023/04/11 07:52:29;;;;;;;1.10;0.82;;;;;;;18.51;27.34;94452.47;5039614;28;20458;-85
2023/04/11 07:54:55;;;;;;;1.35;0.90;;;;;;;17.97;28.98;94432.38;5022720;28;20048;-85
2023/04/11 07:57:20;;;;;;;1.52;0.90;;;;;;;18.39;27.06;94439.06;5038947;28;20068;-85
2023/04/11 07:59:46;;;;;;;1.40;0.90;;;;;;;18.92;25.95;94434.38;5006573;28;20471;-85
2023/04/11 08:02:11;;;;;;;1.10;0.77;;;;;;;19.28;25.11;94437.69;5023749;28;20041;-85
2023/04/11 08:04:37;;;;;;;0.85;0.70;;;;;;;19.66;24.47;94428.09;5039426;28;20033;-85
2023/04/11 08:07:03;;;;;;;1.40;0.90;;;;;;;20.31;24.67;94422.44;5057429;28;20150;-85
2023/04/11 08:09:29;;;;;;;1.83;1.13;;;;;;;19.98;26.04;94413.31;5056888;28;20044;-85
2023/04/11 08:11:55;;;;;;;1.60;0.95;;;;;;;19.96;25.37;94414.78;5039356;28;20037;-85
2023/04/11 08:14:22;;;;;;;1.73;0.90;;;;;;;20.71;24.37;94405.09;5039124;28;20064;-85
2023/04/11 08:16:48;;;;;;;2.45;0.93;;;;;;;20.41;25.61;94406.06;5056918;28;20477;-86
2023/04/11 08:19:14;;;;;;;1.20;0.90;;;;;;;20.29;27.08;94403.38;5022424;28;20029;-85
2023/04/11 08:21:40;;;;;;;1.85;1.13;;;;;;;20.20;27.23;94398.13;5056789;28;20057;-85
2023/04/11 08:24:07;;;;;;;3.17;1.00;;;;;;;20.40;26.49;94393.88;5039130;28;20037;-85
2023/04/11 08:26:32;;;;;;;4.00;1.38;;;;;;;20.30;26.67;94389.75;5055550;28;20082;-86
2023/04/11 08:28:57;;;;;;;2.10;1.05;;;;;;;20.38;27.21;94393.41;5056675;28;20475;-85
2023/04/11 08:31:23;;;;;;;1.60;1.15;;;;;;;20.97;27.20;94396.84;5039153;28;20035;-85
2023/04/11 08:33:49;;;;;;;3.90;1.13;;;;;;;20.57;28.42;94402.75;5038934;28;20029;-85
2023/04/11 08:36:14;;;;;;;2.38;1.50;;;;;;;20.85;28.50;94396.84;5038663;28;20041;-85
2023/04/11 08:38:40;;;;;;;2.55;1.30;;;;;;;21.47;29.43;94400.25;5038807;28;20029;-85
2023/04/11 08:41:06;;;;;;;2.28;1.50;;;;;;;21.49;26.72;94391.91;5038861;28;20037;-87
2023/04/11 08:43:35;;;;;;;1.98;1.48;;;;;;;21.98;26.86;94384.91;5039361;28;20036;-88
2023/04/11 08:46:04;;;;;;;1.52;1.20;;;;;;;21.68;26.25;94390.56;5039191;28;20410;-85
2023/04/11 08:48:31;;;;;;;3.92;1.20;;;;;;;21.44;27.77;94390.25;5039427;28;20041;-85
2023/04/11 08:50:56;;;;;;;1.95;1.30;;;;;;;21.84;27.58;94388.75;5038944;28;20037;-86
2023/04/11 08:53:23;;;;;;;5.28;1.48;;;;;;;21.48;27.50;94385.03;5022496;28;20120;-86
2023/04/11 08:55:49;;;;;;;4.88;1.80;;;;;;;20.81;27.58;94386.06;5039029;28;20037;-84
2023/04/11 08:58:15;;;;;;;6.57;1.80;;;;;;;21.89;27.00;94382.41;5038557;28;20041;-84
2023/04/11 09:00:41;;;;;;;2.20;1.40;;;;;;;20.93;28.35;94377.31;5038681;28;20047;-85
2023/04/11 09:03:07;;;;;;;2.67;1.40;;;;;;;21.60;27.81;94385.00;5038668;28;20029;-85
2023/04/11 09:05:40;;;;;;;2.25;1.48;;;;;;;22.38;27.29;94380.59;5056464;28;20087;-85
2023/04/11 09:08:13;;;;;;;2.75;1.20;;;;;;;21.53;26.77;94376.03;5041416;28;20028;-85
2023/04/11 09:10:40;;;;;;;5.22;1.33;;;;;;;22.27;28.54;94375.75;5059339;28;20040;-85
2023/04/11 09:13:24;;;;;;;3.97;1.63;;;;;;;22.48;28.02;94390.03;5042956;28;20045;-86
2023/04/11 09:16:08;;;;;;;1.80;1.27;;;;;;;22.45;28.94;94391.47;5042361;28;20036;-87
2023/04/11 09:18:34;;;;;;;2.20;1.50;;;;;;;22.44;27.38;94373.88;5026053;28;20032;-86
2023/04/11 09:21:03;;;;;;;2.53;1.50;;;;;;;23.13;26.87;94380.91;5042716;28;20327;-87
2023/04/11 09:23:28;;;;;;;2.80;1.42;;;;;;;22.92;27.06;94370.50;5042457;28;20362;-85
2023/04/11 09:25:54;;;;;;;5.18;2.03;;;;;;;23.32;28.75;94360.72;5042050;28;20032;-86
2023/04/11 09:28:20;;;;;;;3.05;1.73;;;;;;;23.11;29.35;94372.47;5062266;28;20071;-86
2023/04/11 09:30:52;;;;;;;7.15;1.90;;;;;;;22.92;28.54;94363.25;5047023;28;20395;-86
2023/04/11 09:33:21;;;;;;;5.10;1.90;;;;;;;23.43;27.86;94359.06;5061068;28;20341;-84
2023/04/11 09:35:52;;;;;;;2.70;1.67;;;;;;;23.33;27.93;94343.56;5050748;28;20442;-84
2023/04/11 09:38:33;;;;;;;3.72;1.50;;;;;;;23.43;28.31;94340.34;5042053;28;20028;-84
2023/04/11 09:41:00;;;;;;;4.47;1.70;;;;;;;22.85;29.00;94339.06;5059825;28;20028;-83
2023/04/11 09:43:26;;;;;;;3.67;1.70;;;;;;;22.74;28.99;94333.47;5047736;28;20131;-83
2023/04/11 09:46:08;;;;;;;2.20;1.40;;;;;;;23.28;28.08;94332.00;5061272;28;20095;-83
2023/04/11 09:48:36;;;;;;;4.10;1.60;;;;;;;23.43;26.48;94324.28;5061541;28;20430;-83
2023/04/11 09:51:05;;;;;;;3.05;1.63;;;;;;;22.49;26.87;94327.50;5061924;28;20433;-83
2023/04/11 09:53:33;;;;;;;2.45;1.70;;;;;;;21.33;29.24;94331.31;5045694;28;20414;-83
2023/04/11 09:55:59;;;;;;;4.28;2.35;;;;;;;20.34;29.65;94336.63;5079667;28;20162;-83
2023/04/11 09:58:25;;;;;;;3.85;2.10;;;;;;;20.21;29.87;94335.84;5062160;28;20032;-83
2023/04/11 10:00:50;;;;;;;4.57;2.17;;;;;;;21.51;28.85;94330.28;5055954;28;20349;-83
2023/04/11 10:03:18;;;;;;;3.67;2.28;;;;;;;21.29;29.09;94329.66;5028634;28;20507;-83
2023/04/11 10:05:45;;;;;;;2.30;1.55;;;;;;;21.69;30.14;94331.56;5062203;28;20036;-83
2023/04/11 10:08:31;;;;;;;2.75;2.20;;;;;;;22.08;29.05;94333.72;5061545;28;20025;-83
2023/04/11 10:10:58;;;;;;;3.83;1.95;;;;;;;22.74;29.61;94331.56;5061698;28;20448;-83
2023/04/11 10:13:46;;;;;;;4.15;2.00;;;;;;;23.05;29.18;94318.50;5079084;28;20020;-84
2023/04/11 10:16:15;;;;;;;2.70;1.80;;;;;;;22.53;31.47;94325.72;5061539;28;20028;-87
2023/04/11 10:18:46;;;;;;;3.65;2.00;;;;;;;22.06;31.11;94317.28;5060687;28;20025;-83
2023/04/11 10:21:31;;;;;;;2.95;1.75;;;;;;;23.12;29.35;94321.31;5079151;28;20052;-83
2023/04/11 10:24:16;;;;;;;6.30;1.85;;;;;;;22.99;29.73;94320.69;5079109;28;20020;-83
2023/04/11 10:27:02;;;;;;;4.80;2.20;;;;;;;23.29;29.77;94317.53;5061180;28;20145;-84
2023/04/11 10:29:27;;;;;;;5.70;2.13;;;;;;;23.18;29.88;94319.16;5061364;28;20047;-84
2023/04/11 10:32:09;;;;;;;3.97;2.17;;;;;;;23.38;30.75;94311.97;5078972;28;20024;-84
2023/04/11 10:34:38;;;;;;;3.17;2.00;;;;;;;22.96;32.00;94305.34;5061223;28;20490;-84
2023/04/11 10:37:08;;;;;;;2.78;2.00;;;;;;;22.13;30.09;94290.81;5061396;28;20028;-84
2023/04/11 10:39:52;;;;;;;6.22;1.90;;;;;;;21.96;30.59;94291.91;5060892;28;20357;-83
2023/04/11 10:42:33;;;;;;;6.97;2.40;;;;;;;21.82;33.90;94280.84;5078822;28;20025;-84
2023/04/11 10:45:17;;;;;;;2.97;1.98;;;;;;;22.86;32.30;94284.50;5060853;28;20029;-83
2023/04/11 10:47:55;;;;;;;3.58;2.50;;;;;;;21.17;33.45;94277.19;5060489;28;20028;-84
2023/04/11 10:50:30;;;;;;;5.10;2.85;;;;;;;21.60;33.98;94273.03;5060940;28;20029;-84
2023/04/11 10:52:56;;;;;;;4.43;2.33;;;;;;;22.10;33.92;94256.81;5078617;28;20025;-84
2023/04/11 10:55:22;;;;;;;7.82;2.40;;;;;;;22.22;33.30;94258.63;5060261;28;20020;-84
2023/04/11 10:58:05;;;;;;;4.97;2.40;;;;;;;21.53;33.74;94258.75;5060340;28;20035;-84
2023/04/11 11:00:58;;;;;;;3.95;2.28;;;;;;;21.52;33.56;94255.31;5060587;28;20392;-84
2023/04/11 11:03:28;;;;;;;7.25;2.53;;;;;;;21.26;33.28;94256.53;5041189;28;20059;-83
2023/04/11 11:05:58;;;;;;;6.25;2.60;;;;;;;21.98;34.06;94254.22;5044414;28;20021;-83
2023/04/11 11:08:29;;;;;;;6.50;2.60;;;;;;;21.99;32.52;94253.09;5043960;28;20081;-83
2023/04/11 11:10:59;;;;;;;7.50;2.40;;;;;;;22.50;32.87;94244.44;5077908;28;20051;-84
2023/04/11 11:13:43;;;;;;;7.32;2.50;;;;;;;22.54;33.25;94244.53;5043705;28;20056;-83
2023/04/11 11:16:13;;;;;;;3.20;2.40;;;;;;;22.74;33.04;94251.44;5060465;28;20028;-84
2023/04/11 11:18:39;;;;;;;5.55;2.47;;;;;;;21.95;33.18;94261.00;5057965;28;20043;-83
2023/04/11 11:21:05;;;;;;;5.95;2.30;;;;;;;21.26;33.30;94251.19;5058246;28;20438;-83
2023/04/11 11:23:31;;;;;;;5.05;2.25;;;;;;;22.01;33.00;94254.28;5058263;28;20032;-83
2023/04/11 11:25:58;;;;;;;4.22;2.55;;;;;;;21.49;34.38;94250.66;5039938;28;20084;-83
2023/04/11 11:28:25;;;;;;;5.55;2.53;;;;;;;21.31;34.40;94253.59;5029965;28;20043;-86
2023/04/11 11:30:52;;;;;;;6.20;2.40;;;;;;;21.99;33.07;94253.09;5076593;28;20028;-85
2023/04/11 11:33:19;;;;;;;5.95;2.45;;;;;;;22.88;31.53;94261.69;5060173;28;20460;-85